sensor_id;sensor_type;location;lat;lon;timestamp;P1;durP1;ratioP1;P2;durP2;ratioP2
47882;SDS011;37739;50.350;7.578;2022-10-16T00:01:05;2.40;;;0.80;;
47882;SDS011;37739;50.350;7.578;2022-10-16T00:03:36;0.80;;;0.70;;
47882;SDS011;37739;50.350;7.578;2022-10-16T00:06:02;1.43;;;0.90;;
47882;SDS011;37739;50.350;7.578;2022-10-16T00:08:28;1.10;;;0.90;;
47882;SDS011;37739;50.350;7.578;2022-10-16T00:11:07;1.80;;;0.87;;
47882;SDS011;37739;50.350;7.578;2022-10-16T00:13:38;1.30;;;1.00;;
47882;SDS011;37739;50.350;7.578;2022-10-16T00:16:07;1.90;;;1.00;;
47882;SDS011;37739;50.350;7.578;2022-10-16T00:18:36;2.47;;;1.00;;
47882;SDS011;37739;50.350;7.578;2022-10-16T00:21:05;1.10;;;1.00;;
47882;SDS011;37739;50.350;7.578;2022-10-16T00:23:41;1.17;;;0.77;;
47882;SDS011;37739;50.350;7.578;2022-10-16T00:26:11;1.00;;;0.73;;
47882;SDS011;37739;50.350;7.578;2022-10-16T00:28:40;1.20;;;0.80;;
47882;SDS011;37739;50.350;7.578;2022-10-16T00:31:10;1.47;;;1.27;;
47882;SDS011;37739;50.350;7.578;2022-10-16T00:33:37;1.30;;;0.70;;
47882;SDS011;37739;50.350;7.578;2022-10-16T00:36:04;1.57;;;0.87;;
47882;SDS011;37739;50.350;7.578;2022-10-16T00:38:30;0.90;;;0.70;;
47882;SDS011;37739;50.350;7.578;2022-10-16T00:40:56;1.60;;;0.70;;
47882;SDS011;37739;50.350;7.578;2022-10-16T00:43:34;1.57;;;0.87;;
47882;SDS011;37739;50.350;7.578;2022-10-16T00:46:09;1.00;;;0.90;;
47882;SDS011;37739;50.350;7.578;2022-10-16T00:48:42;1.40;;;1.00;;
47882;SDS011;37739;50.350;7.578;2022-10-16T00:51:16;1.10;;;0.90;;
47882;SDS011;37739;50.350;7.578;2022-10-16T00:53:48;2.63;;;0.70;;
47882;SDS011;37739;50.350;7.578;2022-10-16T00:56:14;1.60;;;0.83;;
47882;SDS011;37739;50.350;7.578;2022-10-16T00:58:41;2.60;;;1.00;;
47882;SDS011;37739;50.350;7.578;2022-10-16T01:01:07;1.10;;;1.00;;
47882;SDS011;37739;50.350;7.578;2022-10-16T01:03:35;2.20;;;1.30;;
47882;SDS011;37739;50.350;7.578;2022-10-16T01:06:05;1.70;;;0.93;;
47882;SDS011;37739;50.350;7.578;2022-10-16T01:13:53;1.10;;;0.77;;
47882;SDS011;37739;50.350;7.578;2022-10-16T01:16:28;0.90;;;0.80;;
47882;SDS011;37739;50.350;7.578;2022-10-16T01:19:18;1.17;;;0.80;;
47882;SDS011;37739;50.350;7.578;2022-10-16T01:21:54;3.30;;;1.10;;
47882;SDS011;37739;50.350;7.578;2022-10-16T01:24:34;1.13;;;0.70;;
47882;SDS011;37739;50.350;7.578;2022-10-16T01:29:45;0.90;;;0.63;;
47882;SDS011;37739;50.350;7.578;2022-10-16T01:32:23;1.93;;;1.00;;
47882;SDS011;37739;50.350;7.578;2022-10-16T01:37:43;1.10;;;1.00;;
47882;SDS011;37739;50.350;7.578;2022-10-16T01:40:14;1.20;;;1.00;;
47882;SDS011;37739;50.350;7.578;2022-10-16T01:42:44;1.00;;;0.70;;
47882;SDS011;37739;50.350;7.578;2022-10-16T01:45:13;1.30;;;0.80;;
47882;SDS011;37739;50.350;7.578;2022-10-16T01:47:44;1.10;;;0.87;;
47882;SDS011;37739;50.350;7.578;2022-10-16T01:50:11;1.43;;;0.83;;
47882;SDS011;37739;50.350;7.578;2022-10-16T01:52:39;1.63;;;1.03;;
47882;SDS011;37739;50.350;7.578;2022-10-16T01:55:08;1.33;;;0.80;;
47882;SDS011;37739;50.350;7.578;2022-10-16T01:57:38;1.33;;;0.80;;
47882;SDS011;37739;50.350;7.578;2022-10-16T02:00:09;1.10;;;0.83;;
47882;SDS011;37739;50.350;7.578;2022-10-16T02:02:39;0.87;;;0.83;;
47882;SDS011;37739;50.350;7.578;2022-10-16T02:07:53;1.10;;;0.87;;
47882;SDS011;37739;50.350;7.578;2022-10-16T02:10:21;1.13;;;0.80;;
47882;SDS011;37739;50.350;7.578;2022-10-16T02:12:54;1.20;;;0.80;;
47882;SDS011;37739;50.350;7.578;2022-10-16T02:15:23;2.07;;;0.97;;
47882;SDS011;37739;50.350;7.578;2022-10-16T02:17:49;1.60;;;0.77;;
47882;SDS011;37739;50.350;7.578;2022-10-16T02:20:16;2.60;;;0.90;;
47882;SDS011;37739;50.350;7.578;2022-10-16T02:22:45;1.40;;;0.90;;
47882;SDS011;37739;50.350;7.578;2022-10-16T02:25:18;1.20;;;0.90;;
47882;SDS011;37739;50.350;7.578;2022-10-16T02:28:00;1.37;;;0.80;;
47882;SDS011;37739;50.350;7.578;2022-10-16T02:30:33;1.40;;;0.93;;
47882;SDS011;37739;50.350;7.578;2022-10-16T02:33:03;3.07;;;0.90;;
47882;SDS011;37739;50.350;7.578;2022-10-16T02:35:37;0.90;;;0.80;;
47882;SDS011;37739;50.350;7.578;2022-10-16T02:38:05;1.57;;;1.00;;
47882;SDS011;37739;50.350;7.578;2022-10-16T02:40:35;0.93;;;0.63;;
47882;SDS011;37739;50.350;7.578;2022-10-16T02:43:03;3.30;;;0.97;;
47882;SDS011;37739;50.350;7.578;2022-10-16T02:45:32;1.20;;;0.87;;
47882;SDS011;37739;50.350;7.578;2022-10-16T02:47:58;2.10;;;1.07;;
47882;SDS011;37739;50.350;7.578;2022-10-16T02:50:27;6.07;;;1.50;;
47882;SDS011;37739;50.350;7.578;2022-10-16T02:52:53;2.80;;;0.90;;
47882;SDS011;37739;50.350;7.578;2022-10-16T02:55:21;3.27;;;1.20;;
47882;SDS011;37739;50.350;7.578;2022-10-16T02:57:46;2.40;;;1.33;;
47882;SDS011;37739;50.350;7.578;2022-10-16T03:00:12;3.17;;;1.43;;
47882;SDS011;37739;50.350;7.578;2022-10-16T03:02:42;1.83;;;1.20;;
47882;SDS011;37739;50.350;7.578;2022-10-16T03:05:08;1.53;;;1.30;;
47882;SDS011;37739;50.350;7.578;2022-10-16T03:07:34;3.30;;;1.30;;
47882;SDS011;37739;50.350;7.578;2022-10-16T03:10:02;4.03;;;1.30;;
47882;SDS011;37739;50.350;7.578;2022-10-16T03:12:28;2.40;;;1.30;;
47882;SDS011;37739;50.350;7.578;2022-10-16T03:14:53;2.30;;;1.30;;
47882;SDS011;37739;50.350;7.578;2022-10-16T03:17:21;2.00;;;1.07;;
47882;SDS011;37739;50.350;7.578;2022-10-16T03:19:46;1.73;;;1.00;;
47882;SDS011;37739;50.350;7.578;2022-10-16T03:22:12;1.40;;;1.30;;
47882;SDS011;37739;50.350;7.578;2022-10-16T03:24:39;1.30;;;1.20;;
47882;SDS011;37739;50.350;7.578;2022-10-16T03:27:07;2.40;;;1.10;;
47882;SDS011;37739;50.350;7.578;2022-10-16T03:29:35;2.43;;;1.10;;
47882;SDS011;37739;50.350;7.578;2022-10-16T03:32:05;1.80;;;1.10;;
47882;SDS011;37739;50.350;7.578;2022-10-16T03:34:30;1.70;;;1.50;;
47882;SDS011;37739;50.350;7.578;2022-10-16T03:36:58;0.97;;;0.70;;
47882;SDS011;37739;50.350;7.578;2022-10-16T03:39:23;3.67;;;0.90;;
47882;SDS011;37739;50.350;7.578;2022-10-16T03:41:48;1.27;;;1.13;;
47882;SDS011;37739;50.350;7.578;2022-10-16T03:44:14;2.17;;;0.80;;
47882;SDS011;37739;50.350;7.578;2022-10-16T03:46:39;5.07;;;1.00;;
47882;SDS011;37739;50.350;7.578;2022-10-16T03:49:04;2.27;;;0.90;;
47882;SDS011;37739;50.350;7.578;2022-10-16T03:51:30;0.80;;;0.80;;
47882;SDS011;37739;50.350;7.578;2022-10-16T03:53:57;3.27;;;1.13;;
47882;SDS011;37739;50.350;7.578;2022-10-16T03:56:25;0.80;;;0.60;;
47882;SDS011;37739;50.350;7.578;2022-10-16T03:58:51;1.90;;;0.77;;
47882;SDS011;37739;50.350;7.578;2022-10-16T04:01:16;1.20;;;0.93;;
47882;SDS011;37739;50.350;7.578;2022-10-16T04:03:44;1.67;;;1.00;;
47882;SDS011;37739;50.350;7.578;2022-10-16T04:06:13;0.80;;;0.60;;
47882;SDS011;37739;50.350;7.578;2022-10-16T04:08:41;1.77;;;0.70;;
47882;SDS011;37739;50.350;7.578;2022-10-16T04:11:10;1.00;;;0.77;;
47882;SDS011;37739;50.350;7.578;2022-10-16T04:13:37;1.00;;;0.67;;
47882;SDS011;37739;50.350;7.578;2022-10-16T04:16:06;2.30;;;0.80;;
47882;SDS011;37739;50.350;7.578;2022-10-16T04:18:34;1.43;;;1.00;;
47882;SDS011;37739;50.350;7.578;2022-10-16T04:21:04;1.70;;;0.73;;
47882;SDS011;37739;50.350;7.578;2022-10-16T04:23:32;1.20;;;0.70;;
47882;SDS011;37739;50.350;7.578;2022-10-16T04:25:59;2.33;;;0.67;;
47882;SDS011;37739;50.350;7.578;2022-10-16T04:28:24;1.23;;;0.93;;
47882;SDS011;37739;50.350;7.578;2022-10-16T04:30:52;1.10;;;1.00;;
47882;SDS011;37739;50.350;7.578;2022-10-16T04:33:22;0.70;;;0.50;;
47882;SDS011;37739;50.350;7.578;2022-10-16T04:35:47;1.47;;;0.80;;
47882;SDS011;37739;50.350;7.578;2022-10-16T04:38:13;0.80;;;0.50;;
47882;SDS011;37739;50.350;7.578;2022-10-16T04:40:41;2.00;;;0.70;;
47882;SDS011;37739;50.350;7.578;2022-10-16T04:43:07;1.10;;;0.63;;
47882;SDS011;37739;50.350;7.578;2022-10-16T04:45:32;2.60;;;0.70;;
47882;SDS011;37739;50.350;7.578;2022-10-16T04:48:00;2.10;;;0.60;;
47882;SDS011;37739;50.350;7.578;2022-10-16T04:50:27;1.33;;;0.83;;
47882;SDS011;37739;50.350;7.578;2022-10-16T04:52:55;1.53;;;0.80;;
47882;SDS011;37739;50.350;7.578;2022-10-16T04:55:20;0.70;;;0.50;;
47882;SDS011;37739;50.350;7.578;2022-10-16T04:57:48;1.20;;;0.77;;
47882;SDS011;37739;50.350;7.578;2022-10-16T05:00:13;0.80;;;0.70;;
47882;SDS011;37739;50.350;7.578;2022-10-16T05:02:39;0.80;;;0.50;;
47882;SDS011;37739;50.350;7.578;2022-10-16T05:05:09;1.10;;;0.50;;
47882;SDS011;37739;50.350;7.578;2022-10-16T05:07:34;0.90;;;0.63;;
47882;SDS011;37739;50.350;7.578;2022-10-16T05:09:59;0.90;;;0.63;;
47882;SDS011;37739;50.350;7.578;2022-10-16T05:12:25;1.00;;;0.53;;
47882;SDS011;37739;50.350;7.578;2022-10-16T05:14:52;0.87;;;0.60;;
47882;SDS011;37739;50.350;7.578;2022-10-16T05:17:17;2.17;;;0.70;;
47882;SDS011;37739;50.350;7.578;2022-10-16T05:19:43;2.20;;;0.90;;
47882;SDS011;37739;50.350;7.578;2022-10-16T05:22:08;2.53;;;0.70;;
47882;SDS011;37739;50.350;7.578;2022-10-16T05:24:33;0.90;;;0.70;;
47882;SDS011;37739;50.350;7.578;2022-10-16T05:26:59;1.20;;;0.57;;
47882;SDS011;37739;50.350;7.578;2022-10-16T05:29:28;2.90;;;0.90;;
47882;SDS011;37739;50.350;7.578;2022-10-16T05:31:56;2.73;;;0.83;;
47882;SDS011;37739;50.350;7.578;2022-10-16T05:34:22;2.00;;;0.50;;
47882;SDS011;37739;50.350;7.578;2022-10-16T05:36:47;0.80;;;0.60;;
47882;SDS011;37739;50.350;7.578;2022-10-16T05:39:13;1.90;;;0.80;;
47882;SDS011;37739;50.350;7.578;2022-10-16T05:41:39;1.90;;;0.80;;
47882;SDS011;37739;50.350;7.578;2022-10-16T05:44:09;1.70;;;0.80;;
47882;SDS011;37739;50.350;7.578;2022-10-16T05:46:34;3.43;;;0.80;;
47882;SDS011;37739;50.350;7.578;2022-10-16T05:49:00;1.23;;;0.80;;
47882;SDS011;37739;50.350;7.578;2022-10-16T05:51:26;2.07;;;0.83;;
47882;SDS011;37739;50.350;7.578;2022-10-16T05:53:51;1.23;;;0.90;;
47882;SDS011;37739;50.350;7.578;2022-10-16T05:56:19;1.00;;;0.80;;
47882;SDS011;37739;50.350;7.578;2022-10-16T05:58:45;3.10;;;1.10;;
47882;SDS011;37739;50.350;7.578;2022-10-16T06:01:13;1.90;;;1.07;;
47882;SDS011;37739;50.350;7.578;2022-10-16T06:03:41;1.67;;;1.30;;
47882;SDS011;37739;50.350;7.578;2022-10-16T06:06:07;1.33;;;1.07;;
47882;SDS011;37739;50.350;7.578;2022-10-16T06:08:42;1.60;;;1.50;;
47882;SDS011;37739;50.350;7.578;2022-10-16T06:11:12;3.00;;;1.13;;
47882;SDS011;37739;50.350;7.578;2022-10-16T06:13:39;3.03;;;1.60;;
47882;SDS011;37739;50.350;7.578;2022-10-16T06:16:06;1.77;;;1.30;;
47882;SDS011;37739;50.350;7.578;2022-10-16T06:18:32;0.93;;;0.80;;
47882;SDS011;37739;50.350;7.578;2022-10-16T06:21:06;2.60;;;1.30;;
47882;SDS011;37739;50.350;7.578;2022-10-16T06:23:38;3.70;;;1.17;;
47882;SDS011;37739;50.350;7.578;2022-10-16T06:26:13;1.13;;;1.03;;
47882;SDS011;37739;50.350;7.578;2022-10-16T06:28:40;2.60;;;1.40;;
47882;SDS011;37739;50.350;7.578;2022-10-16T06:31:06;2.20;;;1.17;;
47882;SDS011;37739;50.350;7.578;2022-10-16T06:33:33;2.43;;;1.10;;
47882;SDS011;37739;50.350;7.578;2022-10-16T06:38:32;1.93;;;1.20;;
47882;SDS011;37739;50.350;7.578;2022-10-16T06:41:02;1.10;;;0.90;;
47882;SDS011;37739;50.350;7.578;2022-10-16T06:43:29;1.27;;;1.17;;
47882;SDS011;37739;50.350;7.578;2022-10-16T06:45:57;1.80;;;0.97;;
47882;SDS011;37739;50.350;7.578;2022-10-16T06:48:26;1.73;;;1.00;;
47882;SDS011;37739;50.350;7.578;2022-10-16T06:51:00;1.60;;;0.93;;
47882;SDS011;37739;50.350;7.578;2022-10-16T06:53:28;1.70;;;0.97;;
47882;SDS011;37739;50.350;7.578;2022-10-16T06:55:55;1.60;;;0.90;;
47882;SDS011;37739;50.350;7.578;2022-10-16T06:58:23;1.60;;;1.10;;
47882;SDS011;37739;50.350;7.578;2022-10-16T07:00:56;1.00;;;0.80;;
47882;SDS011;37739;50.350;7.578;2022-10-16T07:03:22;1.33;;;0.90;;
47882;SDS011;37739;50.350;7.578;2022-10-16T07:05:49;0.90;;;0.70;;
47882;SDS011;37739;50.350;7.578;2022-10-16T07:08:17;2.13;;;0.83;;
47882;SDS011;37739;50.350;7.578;2022-10-16T07:10:42;1.70;;;0.73;;
47882;SDS011;37739;50.350;7.578;2022-10-16T07:13:12;2.00;;;0.90;;
47882;SDS011;37739;50.350;7.578;2022-10-16T07:15:38;0.80;;;0.50;;
47882;SDS011;37739;50.350;7.578;2022-10-16T07:18:04;1.20;;;0.97;;
47882;SDS011;37739;50.350;7.578;2022-10-16T07:20:32;1.17;;;1.00;;
47882;SDS011;37739;50.350;7.578;2022-10-16T07:23:00;1.17;;;0.63;;
47882;SDS011;37739;50.350;7.578;2022-10-16T07:25:25;0.90;;;0.77;;
47882;SDS011;37739;50.350;7.578;2022-10-16T07:27:50;2.17;;;0.80;;
47882;SDS011;37739;50.350;7.578;2022-10-16T07:30:21;1.37;;;0.90;;
47882;SDS011;37739;50.350;7.578;2022-10-16T07:32:47;2.80;;;0.97;;
47882;SDS011;37739;50.350;7.578;2022-10-16T07:35:12;2.17;;;1.10;;
47882;SDS011;37739;50.350;7.578;2022-10-16T07:37:45;1.30;;;0.93;;
47882;SDS011;37739;50.350;7.578;2022-10-16T07:40:11;1.30;;;1.03;;
47882;SDS011;37739;50.350;7.578;2022-10-16T07:42:37;1.50;;;1.00;;
47882;SDS011;37739;50.350;7.578;2022-10-16T07:45:05;1.77;;;1.10;;
47882;SDS011;37739;50.350;7.578;2022-10-16T07:47:33;1.77;;;1.00;;
47882;SDS011;37739;50.350;7.578;2022-10-16T07:49:58;3.13;;;0.90;;
47882;SDS011;37739;50.350;7.578;2022-10-16T07:52:23;2.17;;;0.70;;
47882;SDS011;37739;50.350;7.578;2022-10-16T07:54:49;1.03;;;0.90;;
47882;SDS011;37739;50.350;7.578;2022-10-16T07:57:14;2.27;;;1.00;;
47882;SDS011;37739;50.350;7.578;2022-10-16T07:59:44;1.00;;;0.77;;
47882;SDS011;37739;50.350;7.578;2022-10-16T08:02:12;1.57;;;0.90;;
47882;SDS011;37739;50.350;7.578;2022-10-16T08:04:37;2.10;;;0.50;;
47882;SDS011;37739;50.350;7.578;2022-10-16T08:07:05;1.30;;;0.63;;
47882;SDS011;37739;50.350;7.578;2022-10-16T08:09:32;2.03;;;0.90;;
47882;SDS011;37739;50.350;7.578;2022-10-16T08:11:57;0.80;;;0.50;;
47882;SDS011;37739;50.350;7.578;2022-10-16T08:14:23;0.80;;;0.60;;
47882;SDS011;37739;50.350;7.578;2022-10-16T08:16:48;1.57;;;0.60;;
47882;SDS011;37739;50.350;7.578;2022-10-16T08:19:13;1.80;;;0.50;;
47882;SDS011;37739;50.350;7.578;2022-10-16T08:21:41;1.20;;;0.80;;
47882;SDS011;37739;50.350;7.578;2022-10-16T08:24:06;5.00;;;0.80;;
47882;SDS011;37739;50.350;7.578;2022-10-16T08:26:32;0.80;;;0.60;;
47882;SDS011;37739;50.350;7.578;2022-10-16T08:28:59;3.93;;;0.80;;
47882;SDS011;37739;50.350;7.578;2022-10-16T08:31:25;1.10;;;0.70;;
47882;SDS011;37739;50.350;7.578;2022-10-16T08:33:52;1.23;;;0.67;;
47882;SDS011;37739;50.350;7.578;2022-10-16T08:36:19;2.77;;;1.07;;
47882;SDS011;37739;50.350;7.578;2022-10-16T08:38:47;1.10;;;0.90;;
47882;SDS011;37739;50.350;7.578;2022-10-16T08:41:31;1.37;;;1.27;;
47882;SDS011;37739;50.350;7.578;2022-10-16T08:47:13;1.23;;;0.70;;
47882;SDS011;37739;50.350;7.578;2022-10-16T08:49:52;1.17;;;0.83;;
47882;SDS011;37739;50.350;7.578;2022-10-16T08:52:22;2.50;;;0.60;;
47882;SDS011;37739;50.350;7.578;2022-10-16T08:54:57;1.20;;;0.70;;
47882;SDS011;37739;50.350;7.578;2022-10-16T08:57:27;0.80;;;0.60;;
47882;SDS011;37739;50.350;7.578;2022-10-16T08:59:53;3.20;;;0.70;;
47882;SDS011;37739;50.350;7.578;2022-10-16T09:13:13;0.80;;;0.50;;
47882;SDS011;37739;50.350;7.578;2022-10-16T09:18:48;1.37;;;0.80;;
47882;SDS011;37739;50.350;7.578;2022-10-16T09:21:23;2.03;;;0.70;;
47882;SDS011;37739;50.350;7.578;2022-10-16T09:23:52;1.20;;;0.70;;
47882;SDS011;37739;50.350;7.578;2022-10-16T09:26:22;1.33;;;1.10;;
47882;SDS011;37739;50.350;7.578;2022-10-16T09:28:48;1.27;;;0.60;;
47882;SDS011;37739;50.350;7.578;2022-10-16T09:31:14;2.37;;;0.60;;
47882;SDS011;37739;50.350;7.578;2022-10-16T09:33:42;1.10;;;0.60;;
47882;SDS011;37739;50.350;7.578;2022-10-16T09:36:10;1.93;;;0.70;;
47882;SDS011;37739;50.350;7.578;2022-10-16T09:38:40;2.20;;;1.00;;
47882;SDS011;37739;50.350;7.578;2022-10-16T09:48:50;1.40;;;0.47;;
47882;SDS011;37739;50.350;7.578;2022-10-16T09:51:27;2.40;;;0.77;;
47882;SDS011;37739;50.350;7.578;2022-10-16T09:53:56;1.90;;;1.17;;
47882;SDS011;37739;50.350;7.578;2022-10-16T09:56:37;1.37;;;1.00;;
47882;SDS011;37739;50.350;7.578;2022-10-16T09:59:12;1.40;;;0.87;;
47882;SDS011;37739;50.350;7.578;2022-10-16T10:01:55;1.43;;;0.90;;
47882;SDS011;37739;50.350;7.578;2022-10-16T10:04:23;0.97;;;0.70;;
47882;SDS011;37739;50.350;7.578;2022-10-16T10:06:51;1.10;;;0.80;;
47882;SDS011;37739;50.350;7.578;2022-10-16T10:11:48;1.10;;;0.67;;
47882;SDS011;37739;50.350;7.578;2022-10-16T10:19:36;1.00;;;0.40;;
47882;SDS011;37739;50.350;7.578;2022-10-16T10:27:50;1.73;;;0.67;;
47882;SDS011;37739;50.350;7.578;2022-10-16T10:33:48;1.37;;;0.50;;
47882;SDS011;37739;50.350;7.578;2022-10-16T10:36:38;0.70;;;0.50;;
47882;SDS011;37739;50.350;7.578;2022-10-16T10:50:25;3.70;;;0.70;;
47882;SDS011;37739;50.350;7.578;2022-10-16T10:55:45;1.00;;;0.57;;
47882;SDS011;37739;50.350;7.578;2022-10-16T11:01:22;0.67;;;0.43;;
47882;SDS011;37739;50.350;7.578;2022-10-16T11:04:15;0.90;;;0.50;;
47882;SDS011;37739;50.350;7.578;2022-10-16T11:07:06;0.90;;;0.40;;
47882;SDS011;37739;50.350;7.578;2022-10-16T11:09:41;1.00;;;0.40;;
47882;SDS011;37739;50.350;7.578;2022-10-16T11:12:34;1.90;;;0.60;;
47882;SDS011;37739;50.350;7.578;2022-10-16T11:15:04;1.07;;;0.50;;
47882;SDS011;37739;50.350;7.578;2022-10-16T11:17:45;0.80;;;0.40;;
47882;SDS011;37739;50.350;7.578;2022-10-16T11:20:19;1.30;;;0.40;;
47882;SDS011;37739;50.350;7.578;2022-10-16T11:22:57;1.13;;;0.40;;
47882;SDS011;37739;50.350;7.578;2022-10-16T11:25:31;1.00;;;0.60;;
47882;SDS011;37739;50.350;7.578;2022-10-16T11:30:41;1.03;;;0.40;;
47882;SDS011;37739;50.350;7.578;2022-10-16T11:41:14;0.87;;;0.40;;
47882;SDS011;37739;50.350;7.578;2022-10-16T11:43:48;0.90;;;0.50;;
47882;SDS011;37739;50.350;7.578;2022-10-16T11:46:25;1.27;;;0.50;;
47882;SDS011;37739;50.350;7.578;2022-10-16T11:48:55;0.90;;;0.67;;
47882;SDS011;37739;50.350;7.578;2022-10-16T11:51:36;1.10;;;0.50;;
47882;SDS011;37739;50.350;7.578;2022-10-16T11:56:46;0.90;;;0.40;;
47882;SDS011;37739;50.350;7.578;2022-10-16T11:59:24;1.30;;;0.50;;
47882;SDS011;37739;50.350;7.578;2022-10-16T12:01:59;0.80;;;0.33;;
47882;SDS011;37739;50.350;7.578;2022-10-16T12:04:48;0.70;;;0.30;;
47882;SDS011;37739;50.350;7.578;2022-10-16T12:07:24;0.70;;;0.40;;
47882;SDS011;37739;50.350;7.578;2022-10-16T12:09:57;0.60;;;0.30;;
47882;SDS011;37739;50.350;7.578;2022-10-16T12:15:01;0.90;;;0.30;;
47882;SDS011;37739;50.350;7.578;2022-10-16T12:17:51;0.70;;;0.40;;
47882;SDS011;37739;50.350;7.578;2022-10-16T12:20:32;0.80;;;0.50;;
47882;SDS011;37739;50.350;7.578;2022-10-16T12:23:04;2.63;;;0.33;;
47882;SDS011;37739;50.350;7.578;2022-10-16T12:25:37;1.77;;;0.40;;
47882;SDS011;37739;50.350;7.578;2022-10-16T12:30:54;0.90;;;0.50;;
47882;SDS011;37739;50.350;7.578;2022-10-16T12:33:32;0.70;;;0.40;;
47882;SDS011;37739;50.350;7.578;2022-10-16T12:36:00;0.60;;;0.30;;
47882;SDS011;37739;50.350;7.578;2022-10-16T12:48:39;0.80;;;0.50;;
47882;SDS011;37739;50.350;7.578;2022-10-16T12:53:45;1.33;;;0.40;;
47882;SDS011;37739;50.350;7.578;2022-10-16T12:58:58;1.03;;;0.50;;
47882;SDS011;37739;50.350;7.578;2022-10-16T13:15:08;0.77;;;0.43;;
47882;SDS011;37739;50.350;7.578;2022-10-16T13:28:35;0.77;;;0.50;;
47882;SDS011;37739;50.350;7.578;2022-10-16T13:31:05;0.67;;;0.30;;
47882;SDS011;37739;50.350;7.578;2022-10-16T13:33:45;0.60;;;0.30;;
47882;SDS011;37739;50.350;7.578;2022-10-16T13:36:23;0.70;;;0.40;;
47882;SDS011;37739;50.350;7.578;2022-10-16T13:39:06;0.70;;;0.30;;
47882;SDS011;37739;50.350;7.578;2022-10-16T13:42:07;0.60;;;0.40;;
47882;SDS011;37739;50.350;7.578;2022-10-16T13:44:41;1.10;;;0.50;;
47882;SDS011;37739;50.350;7.578;2022-10-16T13:47:22;0.80;;;0.40;;
47882;SDS011;37739;50.350;7.578;2022-10-16T13:52:36;0.80;;;0.50;;
47882;SDS011;37739;50.350;7.578;2022-10-16T13:55:03;0.87;;;0.50;;
47882;SDS011;37739;50.350;7.578;2022-10-16T13:57:29;0.60;;;0.40;;
47882;SDS011;37739;50.350;7.578;2022-10-16T13:59:55;0.70;;;0.40;;
47882;SDS011;37739;50.350;7.578;2022-10-16T14:05:02;1.00;;;0.40;;
47882;SDS011;37739;50.350;7.578;2022-10-16T14:07:33;0.90;;;0.50;;
47882;SDS011;37739;50.350;7.578;2022-10-16T14:10:04;0.80;;;0.50;;
47882;SDS011;37739;50.350;7.578;2022-10-16T14:12:43;0.90;;;0.60;;
47882;SDS011;37739;50.350;7.578;2022-10-16T14:15:16;0.70;;;0.40;;
47882;SDS011;37739;50.350;7.578;2022-10-16T14:17:46;0.90;;;0.67;;
47882;SDS011;37739;50.350;7.578;2022-10-16T14:20:15;0.90;;;0.57;;
47882;SDS011;37739;50.350;7.578;2022-10-16T14:22:41;0.80;;;0.40;;
47882;SDS011;37739;50.350;7.578;2022-10-16T14:27:55;0.70;;;0.40;;
47882;SDS011;37739;50.350;7.578;2022-10-16T14:30:25;3.80;;;1.00;;
47882;SDS011;37739;50.350;7.578;2022-10-16T14:32:58;1.30;;;0.80;;
47882;SDS011;37739;50.350;7.578;2022-10-16T14:35:31;1.20;;;0.50;;
47882;SDS011;37739;50.350;7.578;2022-10-16T14:38:02;1.50;;;0.80;;
47882;SDS011;37739;50.350;7.578;2022-10-16T14:40:32;1.30;;;1.03;;
47882;SDS011;37739;50.350;7.578;2022-10-16T14:43:00;1.40;;;1.00;;
47882;SDS011;37739;50.350;7.578;2022-10-16T14:45:28;1.47;;;0.70;;
47882;SDS011;37739;50.350;7.578;2022-10-16T14:47:58;1.00;;;0.60;;
47882;SDS011;37739;50.350;7.578;2022-10-16T14:50:28;0.90;;;0.50;;
47882;SDS011;37739;50.350;7.578;2022-10-16T14:52:56;1.03;;;0.70;;
47882;SDS011;37739;50.350;7.578;2022-10-16T14:55:22;1.23;;;0.60;;
47882;SDS011;37739;50.350;7.578;2022-10-16T14:57:49;0.70;;;0.53;;
47882;SDS011;37739;50.350;7.578;2022-10-16T15:00:19;1.10;;;0.60;;
47882;SDS011;37739;50.350;7.578;2022-10-16T15:02:47;0.73;;;0.47;;
47882;SDS011;37739;50.350;7.578;2022-10-16T15:05:17;1.00;;;0.40;;
47882;SDS011;37739;50.350;7.578;2022-10-16T15:07:50;0.97;;;0.60;;
47882;SDS011;37739;50.350;7.578;2022-10-16T15:10:16;1.20;;;1.10;;
47882;SDS011;37739;50.350;7.578;2022-10-16T15:12:42;1.40;;;1.10;;
47882;SDS011;37739;50.350;7.578;2022-10-16T15:18:09;2.07;;;0.90;;
47882;SDS011;37739;50.350;7.578;2022-10-16T15:20:36;0.80;;;0.60;;
47882;SDS011;37739;50.350;7.578;2022-10-16T15:23:10;1.00;;;0.77;;
47882;SDS011;37739;50.350;7.578;2022-10-16T15:25:45;1.00;;;0.70;;
47882;SDS011;37739;50.350;7.578;2022-10-16T15:28:15;0.80;;;0.50;;
47882;SDS011;37739;50.350;7.578;2022-10-16T15:30:41;0.70;;;0.50;;
47882;SDS011;37739;50.350;7.578;2022-10-16T15:33:11;0.90;;;0.60;;
47882;SDS011;37739;50.350;7.578;2022-10-16T15:35:41;0.80;;;0.60;;
47882;SDS011;37739;50.350;7.578;2022-10-16T15:38:11;1.03;;;0.80;;
47882;SDS011;37739;50.350;7.578;2022-10-16T15:40:37;0.90;;;0.50;;
47882;SDS011;37739;50.350;7.578;2022-10-16T15:43:03;1.07;;;0.50;;
47882;SDS011;37739;50.350;7.578;2022-10-16T15:45:28;0.90;;;0.70;;
47882;SDS011;37739;50.350;7.578;2022-10-16T15:47:55;0.80;;;0.60;;
47882;SDS011;37739;50.350;7.578;2022-10-16T15:50:21;2.63;;;1.00;;
47882;SDS011;37739;50.350;7.578;2022-10-16T15:52:46;0.90;;;0.80;;
47882;SDS011;37739;50.350;7.578;2022-10-16T15:55:12;1.30;;;1.20;;
47882;SDS011;37739;50.350;7.578;2022-10-16T15:57:39;1.30;;;1.20;;
47882;SDS011;37739;50.350;7.578;2022-10-16T16:00:08;1.07;;;0.80;;
47882;SDS011;37739;50.350;7.578;2022-10-16T16:02:36;1.10;;;0.70;;
47882;SDS011;37739;50.350;7.578;2022-10-16T16:05:03;0.80;;;0.53;;
47882;SDS011;37739;50.350;7.578;2022-10-16T16:07:33;2.23;;;0.90;;
47882;SDS011;37739;50.350;7.578;2022-10-16T16:09:59;3.63;;;0.70;;
47882;SDS011;37739;50.350;7.578;2022-10-16T16:12:24;1.07;;;0.70;;
47882;SDS011;37739;50.350;7.578;2022-10-16T16:14:50;1.10;;;0.70;;
47882;SDS011;37739;50.350;7.578;2022-10-16T16:17:16;1.63;;;0.60;;
47882;SDS011;37739;50.350;7.578;2022-10-16T16:19:45;1.23;;;0.80;;
47882;SDS011;37739;50.350;7.578;2022-10-16T16:22:12;0.90;;;0.50;;
47882;SDS011;37739;50.350;7.578;2022-10-16T16:24:42;0.90;;;0.70;;
47882;SDS011;37739;50.350;7.578;2022-10-16T16:27:10;1.67;;;0.90;;
47882;SDS011;37739;50.350;7.578;2022-10-16T16:29:37;1.00;;;0.80;;
47882;SDS011;37739;50.350;7.578;2022-10-16T16:32:03;1.20;;;0.50;;
47882;SDS011;37739;50.350;7.578;2022-10-16T16:34:30;1.30;;;0.63;;
47882;SDS011;37739;50.350;7.578;2022-10-16T16:36:58;0.73;;;0.50;;
47882;SDS011;37739;50.350;7.578;2022-10-16T16:39:24;0.90;;;0.70;;
47882;SDS011;37739;50.350;7.578;2022-10-16T16:41:49;1.20;;;0.60;;
47882;SDS011;37739;50.350;7.578;2022-10-16T16:44:17;1.20;;;0.70;;
47882;SDS011;37739;50.350;7.578;2022-10-16T16:46:45;1.20;;;0.70;;
47882;SDS011;37739;50.350;7.578;2022-10-16T16:49:11;1.13;;;0.83;;
47882;SDS011;37739;50.350;7.578;2022-10-16T16:51:42;1.00;;;0.80;;
47882;SDS011;37739;50.350;7.578;2022-10-16T16:54:10;1.03;;;0.83;;
47882;SDS011;37739;50.350;7.578;2022-10-16T16:56:36;1.20;;;1.00;;
47882;SDS011;37739;50.350;7.578;2022-10-16T16:59:02;1.43;;;0.80;;
47882;SDS011;37739;50.350;7.578;2022-10-16T17:01:27;1.20;;;1.00;;
47882;SDS011;37739;50.350;7.578;2022-10-16T17:03:56;0.93;;;0.60;;
47882;SDS011;37739;50.350;7.578;2022-10-16T17:06:26;1.00;;;0.83;;
47882;SDS011;37739;50.350;7.578;2022-10-16T17:08:54;1.40;;;1.10;;
47882;SDS011;37739;50.350;7.578;2022-10-16T17:11:24;1.50;;;1.20;;
47882;SDS011;37739;50.350;7.578;2022-10-16T17:13:57;1.73;;;1.53;;
47882;SDS011;37739;50.350;7.578;2022-10-16T17:16:24;2.13;;;1.83;;
47882;SDS011;37739;50.350;7.578;2022-10-16T17:18:52;4.23;;;2.30;;
47882;SDS011;37739;50.350;7.578;2022-10-16T17:21:19;2.60;;;2.40;;
47882;SDS011;37739;50.350;7.578;2022-10-16T17:23:45;2.90;;;1.53;;
47882;SDS011;37739;50.350;7.578;2022-10-16T17:26:16;2.27;;;1.70;;